Time;durP1;ratioP1;P1;durP2;ratioP2;P2;SDS_P1;SDS_P2;PMS_P1;PMS_P2;Temp;Humidity;BMP_temperature;BMP_pressure;BME280_temperature;BME280_humidity;BME280_pressure;Samples;Min_cycle;Max_cycle;Signal;HPM_P1;HPM_P2
2021/07/20 00:00:43;;;;;;;;;;;;;;;19.55;nan;99510.78;5018446;28;20304;-81
2021/07/20 00:03:10;;;;;;;;;;;;;;;19.38;nan;99506.69;5017237;28;19930;-81
2021/07/20 00:05:42;;;;;;;;;;;;;;;19.03;nan;99499.72;5015908;28;19930;-81
2021/07/20 00:08:10;;;;;;;;;;;;;;;18.70;nan;99507.22;5016120;28;19932;-81
2021/07/20 00:10:51;;;;;;;;;;;;;;;18.84;nan;99505.84;5015866;28;19936;-81
2021/07/20 00:13:19;;;;;;;;;;;;;;;19.00;nan;99502.69;5017188;28;19926;-81
2021/07/20 00:15:47;;;;;;;;;;;;;;;19.19;nan;99510.75;5016784;28;19925;-81
2021/07/20 00:18:21;;;;;;;;;;;;;;;19.43;nan;99503.22;5002218;28;19926;-81
2021/07/20 00:20:49;;;;;;;;;;;;;;;19.52;nan;99503.22;5009635;28;19925;-81
2021/07/20 00:23:21;;;;;;;;;;;;;;;19.61;nan;99496.75;4994431;28;19935;-81
2021/07/20 00:25:49;;;;;;;;;;;;;;;19.73;nan;99488.06;4999662;28;19925;-81
2021/07/20 00:28:17;;;;;;;;;;;;;;;19.81;nan;99491.38;5032239;28;19929;-81
2021/07/20 00:30:44;;;;;;;;;;;;;;;19.66;nan;99494.06;4993844;28;20343;-81
2021/07/20 00:33:12;;;;;;;;;;;;;;;19.33;nan;99487.50;5007409;28;19929;-81
2021/07/20 00:35:39;;;;;;;;;;;;;;;19.29;nan;99484.03;5015484;28;19925;-81
2021/07/20 00:38:07;;;;;;;;;;;;;;;19.33;nan;99487.50;5031878;28;19929;-81
2021/07/20 00:40:34;;;;;;;;;;;;;;;19.50;nan;99491.59;5031874;28;19932;-81
2021/07/20 00:43:05;;;;;;;;;;;;;;;19.52;nan;99494.72;5015490;28;20384;-81
2021/07/20 00:45:33;;;;;;;;;;;;;;;19.59;nan;99487.94;5015041;28;19926;-81
2021/07/20 00:48:01;;;;;;;;;;;;;;;19.42;nan;99489.53;5014792;28;19952;-81
2021/07/20 00:50:33;;;;;;;;;;;;;;;19.16;nan;99491.84;5001767;28;19943;-81
2021/07/20 00:53:06;;;;;;;;;;;;;;;19.11;nan;99486.84;5002501;28;19932;-81
2021/07/20 00:55:37;;;;;;;;;;;;;;;19.24;nan;99501.63;5015198;28;19933;-81
2021/07/20 00:58:05;;;;;;;;;;;;;;;19.46;nan;99490.94;5031086;28;20358;-81
2021/07/20 01:00:34;;;;;;;;;;;;;;;19.48;nan;99487.63;5015136;28;20266;-81
2021/07/20 01:03:04;;;;;;;;;;;;;;;19.01;nan;99487.28;5014962;28;19925;-81
2021/07/20 01:05:32;;;;;;;;;;;;;;;18.74;nan;99490.88;5016287;28;19925;-81
2021/07/20 01:08:02;;;;;;;;;;;;;;;18.66;nan;99500.13;5015047;28;19925;-81
2021/07/20 01:10:31;;;;;;;;;;;;;;;18.95;nan;99487.13;5016164;28;19926;-81
2021/07/20 01:12:59;;;;;;;;;;;;;;;18.75;nan;99478.28;5014801;28;19925;-81
2021/07/20 01:15:28;;;;;;;;;;;;;;;18.71;nan;99486.13;5010635;28;19936;-81
2021/07/20 01:17:56;;;;;;;;;;;;;;;17.95;nan;99480.31;5008211;28;20265;-81
2021/07/20 01:20:27;;;;;;;;;;;;;;;18.15;nan;99488.44;5015207;28;19932;-81
2021/07/20 01:23:07;;;;;;;;;;;;;;;18.14;nan;99491.72;5016056;28;19925;-81
2021/07/20 01:25:39;;;;;;;;;;;;;;;17.62;nan;99490.50;5014923;28;19931;-81
2021/07/20 01:28:11;;;;;;;;;;;;;;;17.93;nan;99493.34;5015729;28;19926;-81
2021/07/20 01:30:42;;;;;;;;;;;;;;;18.17;nan;99490.78;5014481;28;19925;-81
2021/07/20 01:33:14;;;;;;;;;;;;;;;18.37;nan;99497.69;5014874;28;19925;-81
2021/07/20 01:35:43;;;;;;;;;;;;;;;18.46;nan;99486.41;5014420;28;19979;-81
2021/07/20 01:38:11;;;;;;;;;;;;;;;17.98;nan;99491.97;5004427;28;19980;-81
2021/07/20 01:40:40;;;;;;;;;;;;;;;18.20;nan;99489.88;5011375;28;19983;-81
2021/07/20 01:43:07;;;;;;;;;;;;;;;18.33;nan;99488.50;5014230;28;19934;-81
2021/07/20 01:45:35;;;;;;;;;;;;;;;18.41;nan;99478.50;5014196;28;19931;-81
2021/07/20 01:48:03;;;;;;;;;;;;;;;18.52;nan;99481.69;5030901;28;19926;-81
2021/07/20 01:50:34;;;;;;;;;;;;;;;18.60;nan;99474.47;5015618;28;19932;-81
2021/07/20 01:53:02;;;;;;;;;;;;;;;18.46;nan;99477.91;5014206;28;20377;-81
2021/07/20 01:55:30;;;;;;;;;;;;;;;18.07;nan;99472.22;5015382;28;19929;-81
2021/07/20 01:57:59;;;;;;;;;;;;;;;17.81;nan;99472.38;5013724;28;19926;-81
2021/07/20 02:00:49;;;;;;;;;;;;;;;17.83;nan;99477.59;4998540;28;19925;-81
2021/07/20 02:09:00;;;;;;;;;;;;;;;17.89;nan;99478.56;5002295;28;19945;-81
2021/07/20 02:11:30;;;;;;;;;;;;;;;18.02;nan;99467.97;5013274;28;19936;-81
2021/07/20 02:14:23;;;;;;;;;;;;;;;18.05;nan;99464.19;4957737;28;19997;-80
2021/07/20 02:17:05;;;;;;;;;;;;;;;17.91;nan;99459.09;4957717;28;19926;-81
2021/07/20 02:19:40;;;;;;;;;;;;;;;17.92;nan;99460.66;4973818;28;19926;-81
2021/07/20 02:22:19;;;;;;;;;;;;;;;17.57;nan;99465.66;4959791;28;19930;-81
2021/07/20 02:24:51;;;;;;;;;;;;;;;17.52;nan;99468.28;4973601;28;20440;-81
2021/07/20 02:27:20;;;;;;;;;;;;;;;17.26;nan;99473.25;4968950;28;19930;-81
2021/07/20 02:29:58;;;;;;;;;;;;;;;17.53;nan;99472.69;4937603;29;19958;-81
2021/07/20 02:32:26;;;;;;;;;;;;;;;17.74;nan;99464.19;4963281;28;20308;-81
2021/07/20 02:34:57;;;;;;;;;;;;;;;17.90;nan;99460.38;4961405;28;19933;-81
2021/07/20 02:37:29;;;;;;;;;;;;;;;17.90;nan;99460.38;4942034;29;20018;-81
2021/07/20 02:39:58;;;;;;;;;;;;;;;17.86;nan;99465.34;4956961;28;20388;-81
2021/07/20 02:42:25;;;;;;;;;;;;;;;17.78;nan;99461.25;4957300;28;19976;-81
2021/07/20 02:44:58;;;;;;;;;;;;;;;17.87;nan;99458.47;4957238;28;19930;-81
2021/07/20 02:47:26;;;;;;;;;;;;;;;18.05;nan;99461.38;4973194;28;19926;-81
2021/07/20 02:49:53;;;;;;;;;;;;;;;17.94;nan;99455.34;4970893;28;19980;-81
2021/07/20 02:52:23;;;;;;;;;;;;;;;17.79;nan;99460.78;5021637;28;19926;-81
2021/07/20 02:54:51;;;;;;;;;;;;;;;17.64;nan;99458.97;4996592;28;19926;-80
2021/07/20 02:57:20;;;;;;;;;;;;;;;17.37;nan;99459.50;5013087;28;19947;-81
2021/07/20 02:59:53;;;;;;;;;;;;;;;17.10;nan;99464.19;5029425;28;20280;-81
2021/07/20 03:02:38;;;;;;;;;;;;;;;16.82;nan;99470.81;4996477;28;19964;-81
2021/07/20 03:05:05;;;;;;;;;;;;;;;17.16;nan;99473.66;4996199;28;20338;-81
2021/07/20 03:07:34;;;;;;;;;;;;;;;17.33;nan;99466.53;4996619;28;19955;-81
2021/07/20 03:10:03;;;;;;;;;;;;;;;17.44;nan;99467.78;4996543;28;19939;-81
2021/07/20 03:12:32;;;;;;;;;;;;;;;17.36;nan;99465.63;5012893;28;19925;-81
2021/07/20 03:15:00;;;;;;;;;;;;;;;17.30;nan;99467.47;5013392;28;19926;-81
2021/07/20 03:17:42;;;;;;;;;;;;;;;17.43;nan;99468.19;5012886;28;19926;-81
2021/07/20 03:20:10;;;;;;;;;;;;;;;17.55;nan;99467.38;5013396;28;19926;-81
2021/07/20 03:22:41;;;;;;;;;;;;;;;17.58;nan;99467.22;5012945;28;19926;-81
2021/07/20 03:25:14;;;;;;;;;;;;;;;17.39;nan;99459.06;5013155;28;20302;-81
2021/07/20 03:27:44;;;;;;;;;;;;;;;17.15;nan;99455.09;5013262;28;20372;-81
2021/07/20 03:30:14;;;;;;;;;;;;;;;16.92;nan;99461.22;5024844;28;19931;-81
2021/07/20 03:32:47;;;;;;;;;;;;;;;17.16;nan;99462.34;5014339;28;20390;-81
2021/07/20 03:35:44;;;;;;;;;;;;;;;17.35;nan;99461.22;5012856;28;19925;-81
2021/07/20 03:38:12;;;;;;;;;;;;;;;17.56;nan;99458.44;5013855;28;20300;-81
2021/07/20 03:40:44;;;;;;;;;;;;;;;17.66;nan;99453.63;5013216;28;20364;-81
2021/07/20 03:43:12;;;;;;;;;;;;;;;17.75;nan;99456.50;4996563;28;19929;-81
2021/07/20 03:45:39;;;;;;;;;;;;;;;17.91;nan;99454.25;5000991;28;19929;-81
2021/07/20 03:48:07;;;;;;;;;;;;;;;17.95;nan;99457.72;4994752;28;19932;-81
2021/07/20 03:50:46;;;;;;;;;;;;;;;17.87;nan;99449.97;4996424;28;20314;-81
2021/07/20 03:53:13;;;;;;;;;;;;;;;17.43;nan;99454.09;5013337;28;20283;-80
2021/07/20 03:55:52;;;;;;;;;;;;;;;17.47;nan;99457.59;5014012;28;19926;-81
2021/07/20 03:58:20;;;;;;;;;;;;;;;16.90;nan;99458.84;5012732;28;20380;-81
2021/07/20 04:00:49;;;;;;;;;;;;;;;16.97;nan;99458.59;4996477;28;19963;-81
2021/07/20 04:03:22;;;;;;;;;;;;;;;17.18;nan;99449.34;5012655;28;19929;-81
2021/07/20 04:06:06;;;;;;;;;;;;;;;17.42;nan;99458.94;5012647;28;20368;-81
2021/07/20 04:08:40;;;;;;;;;;;;;;;17.65;nan;99449.22;5012370;28;19925;-80
2021/07/20 04:11:07;;;;;;;;;;;;;;;17.60;nan;99452.63;4996425;28;19926;-80
2021/07/20 04:13:44;;;;;;;;;;;;;;;17.00;nan;99454.03;5011384;28;19925;-80
2021/07/20 04:16:29;;;;;;;;;;;;;;;17.23;nan;99460.06;5011144;28;19929;-81
2021/07/20 04:18:56;;;;;;;;;;;;;;;17.38;nan;99457.50;5003001;28;19925;-80
2021/07/20 04:21:44;;;;;;;;;;;;;;;17.43;nan;99459.72;5002763;28;19926;-80
2021/07/20 04:24:13;;;;;;;;;;;;;;;17.41;nan;99456.56;5003045;28;19926;-80
2021/07/20 04:26:44;;;;;;;;;;;;;;;17.15;nan;99463.56;5001654;28;19926;-80
2021/07/20 04:29:12;;;;;;;;;;;;;;;16.88;nan;99469.00;4992419;28;19925;-81
2021/07/20 04:31:44;;;;;;;;;;;;;;;17.05;nan;99471.22;4999131;28;20396;-81
2021/07/20 04:34:13;;;;;;;;;;;;;;;16.65;nan;99466.56;4994779;28;20380;-80
2021/07/20 04:36:40;;;;;;;;;;;;;;;16.84;nan;99471.16;5005983;28;20578;-81
2021/07/20 04:39:37;;;;;;;;;;;;;;;17.00;nan;99476.63;5024384;28;19925;-81
2021/07/20 04:42:08;;;;;;;;;;;;;;;17.28;nan;99475.63;5007574;28;20288;-80
2021/07/20 04:44:38;;;;;;;;;;;;;;;17.38;nan;99477.25;5016548;28;19929;-81
2021/07/20 04:47:32;;;;;;;;;;;;;;;17.59;nan;99473.66;5025119;28;19925;-81
2021/07/20 04:50:07;;;;;;;;;;;;;;;17.68;nan;99466.03;5017572;28;19926;-81
2021/07/20 04:52:36;;;;;;;;;;;;;;;17.87;nan;99462.06;5031059;28;19983;-80
2021/07/20 04:55:05;;;;;;;;;;;;;;;17.94;nan;99455.34;5015229;28;20577;-81
2021/07/20 04:57:34;;;;;;;;;;;;;;;18.05;nan;99458.53;5008116;28;19932;-80
2021/07/20 05:00:03;;;;;;;;;;;;;;;18.10;nan;99459.97;5003921;28;19936;-81
2021/07/20 05:02:33;;;;;;;;;;;;;;;17.51;nan;99463.88;5025012;28;20364;-80
2021/07/20 05:05:02;;;;;;;;;;;;;;;17.51;nan;99466.69;5023491;28;19991;-81
2021/07/20 05:07:30;;;;;;;;;;;;;;;17.96;nan;99469.81;5023375;28;19925;-81
2021/07/20 05:09:58;;;;;;;;;;;;;;;18.20;nan;99462.38;5024798;28;19925;-81
2021/07/20 05:12:32;;;;;;;;;;;;;;;18.33;nan;99467.91;5023191;28;19925;-80
2021/07/20 05:15:04;;;;;;;;;;;;;;;18.23;nan;99472.75;5025144;28;20383;-80
2021/07/20 05:17:37;;;;;;;;;;;;;;;17.67;nan;99472.16;5022555;28;19926;-80
2021/07/20 05:20:07;;;;;;;;;;;;;;;17.28;nan;99472.81;5026302;28;19925;-80
2021/07/20 05:23:02;;;;;;;;;;;;;;;17.32;nan;99471.44;5012485;28;19925;-80
2021/07/20 05:25:30;;;;;;;;;;;;;;;17.44;nan;99472.63;5006532;28;19925;-80
2021/07/20 05:27:58;;;;;;;;;;;;;;;17.69;nan;99473.25;5024470;28;19925;-80
2021/07/20 05:30:29;;;;;;;;;;;;;;;17.94;nan;99472.31;5008027;28;19930;-81
2021/07/20 05:32:58;;;;;;;;;;;;;;;18.21;nan;99478.09;5022810;28;19929;-80
2021/07/20 05:35:38;;;;;;;;;;;;;;;18.52;nan;99473.22;5023366;28;19926;-80
2021/07/20 05:38:05;;;;;;;;;;;;;;;18.86;nan;99470.13;5014540;28;19926;-81
2021/07/20 05:40:33;;;;;;;;;;;;;;;19.21;nan;99473.44;5015547;28;19931;-81
2021/07/20 05:43:01;;;;;;;;;;;;;;;19.52;nan;99466.38;5015321;28;19926;-81
2021/07/20 05:45:40;;;;;;;;;;;;;;;19.50;nan;99463.25;5015861;28;19929;-80
2021/07/20 05:48:07;;;;;;;;;;;;;;;19.65;nan;99455.66;5014144;28;19932;-80
2021/07/20 05:50:48;;;;;;;;;;;;;;;19.68;nan;99456.75;4998038;28;20300;-81
2021/07/20 05:53:30;;;;;;;;;;;;;;;19.79;nan;99462.72;5015171;28;19971;-80
2021/07/20 05:56:17;;;;;;;;;;;;;;;19.85;nan;99468.50;5013864;28;20331;-81
2021/07/20 05:58:54;;;;;;;;;;;;;;;19.92;nan;99468.97;5014032;28;19925;-80
2021/07/20 06:01:21;;;;;;;;;;;;;;;19.66;nan;99465.72;5014921;28;19932;-81
2021/07/20 06:03:54;;;;;;;;;;;;;;;19.55;nan;99470.31;4997570;28;19925;-81
2021/07/20 06:06:25;;;;;;;;;;;;;;;19.82;nan;99466.63;5014950;28;19925;-81
2021/07/20 06:08:53;;;;;;;;;;;;;;;20.20;nan;99458.34;5015358;28;19925;-81
2021/07/20 06:11:21;;;;;;;;;;;;;;;20.36;nan;99466.47;5014847;28;20386;-81
2021/07/20 06:13:51;;;;;;;;;;;;;;;20.39;nan;99459.81;5013563;28;19936;-81
2021/07/20 06:16:21;;;;;;;;;;;;;;;20.65;nan;99460.94;4982507;28;19975;-81
2021/07/20 06:18:48;;;;;;;;;;;;;;;20.71;nan;99456.97;5005120;28;20291;-81
2021/07/20 06:21:19;;;;;;;;;;;;;;;20.77;nan;99455.03;5012139;28;19933;-81
2021/07/20 06:23:47;;;;;;;;;;;;;;;20.35;nan;99457.19;4989666;28;19932;-81
2021/07/20 06:26:16;;;;;;;;;;;;;;;20.17;nan;99459.31;5011646;28;19925;-81
2021/07/20 06:28:43;;;;;;;;;;;;;;;20.10;nan;99466.06;5012965;28;19932;-81
2021/07/20 06:31:11;;;;;;;;;;;;;;;20.41;nan;99463.78;5019947;28;19925;-84
2021/07/20 06:33:39;;;;;;;;;;;;;;;20.91;nan;99470.56;5016501;28;19926;-82
2021/07/20 06:36:06;;;;;;;;;;;;;;;21.22;nan;99468.13;5023893;28;20452;-83
2021/07/20 06:38:33;;;;;;;;;;;;;;;21.50;nan;99457.31;5010914;28;19925;-83
2021/07/20 06:41:01;;;;;;;;;;;;;;;21.64;nan;99454.50;4999732;28;19952;-84
2021/07/20 06:43:30;;;;;;;;;;;;;;;21.59;nan;99460.88;4989557;28;19925;-84
2021/07/20 06:45:58;;;;;;;;;;;;;;;21.75;nan;99457.56;5010796;28;19925;-83
2021/07/20 06:48:26;;;;;;;;;;;;;;;22.03;nan;99467.38;5010553;28;19930;-85
2021/07/20 06:50:54;;;;;;;;;;;;;;;22.32;nan;99455.97;5018879;28;19929;-85
2021/07/20 06:53:22;;;;;;;;;;;;;;;22.62;nan;99450.97;4993256;28;19925;-85
2021/07/20 06:55:51;;;;;;;;;;;;;;;23.02;nan;99446.09;4978050;28;19926;-84
2021/07/20 06:58:19;;;;;;;;;;;;;;;23.88;nan;99448.09;5002967;28;19926;-84
2021/07/20 07:00:51;;;;;;;;;;;;;;;25.02;nan;99438.06;4992097;28;19926;-84
2021/07/20 07:03:19;;;;;;;;;;;;;;;26.50;nan;99416.69;5026864;28;19975;-84
2021/07/20 07:05:47;;;;;;;;;;;;;;;27.71;nan;99415.41;5011641;28;19940;-84
2021/07/20 07:08:16;;;;;;;;;;;;;;;28.93;nan;99398.63;4961546;28;19926;-84
2021/07/20 07:10:43;;;;;;;;;;;;;;;29.38;nan;99408.28;4993651;28;20380;-85
2021/07/20 07:13:15;;;;;;;;;;;;;;;30.14;nan;99395.34;4998100;28;19925;-84
2021/07/20 07:15:42;;;;;;;;;;;;;;;31.08;nan;99391.50;5014024;28;20399;-85
2021/07/20 07:18:10;;;;;;;;;;;;;;;31.79;nan;99385.44;5009584;28;19929;-84
2021/07/20 07:20:38;;;;;;;;;;;;;;;32.49;nan;99378.44;5012271;28;19926;-85
2021/07/20 07:23:06;;;;;;;;;;;;;;;33.52;nan;99375.94;4993827;28;19953;-85
2021/07/20 07:25:34;;;;;;;;;;;;;;;33.70;nan;99380.63;5009948;28;19940;-84
2021/07/20 07:28:01;;;;;;;;;;;;;;;34.24;nan;99376.47;5009882;28;19932;-83
2021/07/20 07:30:29;;;;;;;;;;;;;;;34.16;nan;99369.91;5013312;28;19941;-82
2021/07/20 07:32:59;;;;;;;;;;;;;;;34.70;nan;99373.00;5013568;28;19926;-83
2021/07/20 07:35:30;;;;;;;;;;;;;;;34.73;nan;99359.47;5009077;28;19933;-82
2021/07/20 07:37:59;;;;;;;;;;;;;;;34.68;nan;99374.94;5008828;28;19929;-82
2021/07/20 07:40:29;;;;;;;;;;;;;;;35.11;nan;99373.91;4995115;28;19975;-84
2021/07/20 07:43:02;;;;;;;;;;;;;;;35.53;nan;99372.78;5013885;28;19932;-80
2021/07/20 07:45:30;;;;;;;;;;;;;;;36.25;nan;99378.53;5013118;28;19936;-80
2021/07/20 07:47:58;;;;;;;;;;;;;;;36.58;nan;99376.34;5021117;28;19944;-79
2021/07/20 07:50:25;;;;;;;;;;;;;;;36.49;nan;99374.09;5019335;28;20372;-86
2021/07/20 07:52:55;;;;;;;;;;;;;;;36.89;nan;99374.69;4996946;28;19925;-85
2021/07/20 07:55:23;;;;;;;;;;;;;;;36.84;nan;99375.72;5024090;28;19925;-89
2021/07/20 07:57:50;;;;;;;;;;;;;;;37.05;nan;99373.16;4997183;28;19978;-85
2021/07/20 08:00:18;;;;;;;;;;;;;;;37.05;nan;99379.00;5010424;28;19947;-85
2021/07/20 08:02:50;;;;;;;;;;;;;;;37.18;nan;99376.50;5027721;28;19929;-84
2021/07/20 08:05:21;;;;;;;;;;;;;;;36.98;nan;99385.66;4999365;28;19951;-83
2021/07/20 08:07:48;;;;;;;;;;;;;;;37.00;nan;99382.91;5010983;28;19925;-82
2021/07/20 08:10:16;;;;;;;;;;;;;;;34.41;nan;99385.41;5009945;28;20311;-83
2021/07/20 08:12:45;;;;;;;;;;;;;;;33.30;nan;99387.41;5026163;28;19933;-84
2021/07/20 08:15:13;;;;;;;;;;;;;;;32.48;nan;99395.00;5009546;28;19940;-84
2021/07/20 08:17:41;;;;;;;;;;;;;;;32.52;nan;99401.19;5009155;28;19929;-83
2021/07/20 08:20:11;;;;;;;;;;;;;;;31.64;nan;99406.28;5006245;28;20423;-83
2021/07/20 08:22:40;;;;;;;;;;;;;;;31.76;nan;99409.66;5042816;28;19921;-83
2021/07/20 08:25:07;;;;;;;;;;;;;;;31.13;nan;99405.78;5023030;28;19921;-85
2021/07/20 08:27:41;;;;;;;;;;;;;;;30.16;nan;99410.75;5028576;28;19921;-84
2021/07/20 08:30:09;;;;;;;;;;;;;;;29.99;nan;99412.34;5023432;28;20407;-83
2021/07/20 08:32:44;;;;;;;;;;;;;;;29.69;nan;99424.06;5021965;28;19921;-86
2021/07/20 08:35:15;;;;;;;;;;;;;;;29.88;nan;99413.31;5003703;28;20320;-85
2021/07/20 08:37:54;;;;;;;;;;;;;;;29.42;nan;99405.84;5002558;28;20314;-84
2021/07/20 08:40:22;;;;;;;;;;;;;;;29.32;nan;99419.06;5019675;28;19925;-84
2021/07/20 08:43:02;;;;;;;;;;;;;;;29.16;nan;99410.66;5019283;28;19925;-85
2021/07/20 08:45:31;;;;;;;;;;;;;;;29.00;nan;99412.41;5029397;28;19925;-85
2021/07/20 08:48:11;;;;;;;;;;;;;;;29.00;nan;99408.75;5018358;28;19944;-85
2021/07/20 08:51:01;;;;;;;;;;;;;;;29.01;nan;99416.84;5011515;28;20306;-84
2021/07/20 08:53:33;;;;;;;;;;;;;;;28.98;nan;99412.16;5012171;28;19921;-82
2021/07/20 08:56:02;;;;;;;;;;;;;;;29.02;nan;99409.75;5026580;28;19925;-82
2021/07/20 08:58:31;;;;;;;;;;;;;;;29.38;nan;99411.16;5012439;28;19922;-82
2021/07/20 09:01:25;;;;;;;;;;;;;;;29.73;nan;99413.78;4998211;28;19921;-82
2021/07/20 09:04:00;;;;;;;;;;;;;;;30.31;nan;99416.03;5018857;28;19925;-82
2021/07/20 09:06:36;;;;;;;;;;;;;;;30.05;nan;99399.41;5017159;28;19921;-83
2021/07/20 09:09:10;;;;;;;;;;;;;;;30.13;nan;99406.09;5007997;28;19975;-82
2021/07/20 09:11:47;;;;;;;;;;;;;;;30.07;nan;99402.53;4999943;28;20458;-82
2021/07/20 09:14:26;;;;;;;;;;;;;;;30.39;nan;99393.88;4988161;28;19925;-82
2021/07/20 09:17:14;;;;;;;;;;;;;;;31.50;nan;99398.19;5009701;28;19925;-83
2021/07/20 09:19:50;;;;;;;;;;;;;;;31.88;nan;99379.97;5015112;28;19929;-82
2021/07/20 09:22:20;;;;;;;;;;;;;;;30.00;nan;99385.09;5013026;28;19925;-82
2021/07/20 09:24:47;;;;;;;;;;;;;;;29.47;nan;99389.84;5014362;28;19927;-82
2021/07/20 09:27:18;;;;;;;;;;;;;;;29.27;nan;99382.53;5015355;28;20330;-81
2021/07/20 09:30:00;;;;;;;;;;;;;;;29.28;nan;99392.72;5019652;28;19929;-81
2021/07/20 09:32:46;;;;;;;;;;;;;;;29.98;nan;99382.75;5017679;28;19921;-81
2021/07/20 09:35:27;;;;;;;;;;;;;;;29.68;nan;99382.22;5022649;28;19921;-82
2021/07/20 09:37:57;;;;;;;;;;;;;;;30.09;nan;99376.03;4998455;28;19921;-86
2021/07/20 09:40:44;;;;;;;;;;;;;;;30.11;nan;99390.69;5015601;28;19921;-82
2021/07/20 09:43:24;;;;;;;;;;;;;;;30.29;nan;99375.44;5029374;28;19921;-88
2021/07/20 09:45:58;;;;;;;;;;;;;;;30.45;nan;99377.25;5001813;28;19975;-87
2021/07/20 09:48:30;;;;;;;;;;;;;;;30.21;nan;99378.22;4994577;28;20295;-85
2021/07/20 09:51:16;;;;;;;;;;;;;;;30.15;nan;99386.16;4994911;28;19921;-87
2021/07/20 09:54:02;;;;;;;;;;;;;;;29.59;nan;99386.25;5008844;28;19928;-87
2021/07/20 09:56:29;;;;;;;;;;;;;;;28.39;nan;99385.63;5002704;28;20490;-83
2021/07/20 09:59:09;;;;;;;;;;;;;;;27.75;nan;99387.19;5009204;28;20383;-80
2021/07/20 10:01:39;;;;;;;;;;;;;;;28.21;nan;99395.72;5013209;28;20553;-84
2021/07/20 10:04:12;;;;;;;;;;;;;;;28.31;nan;99382.56;5004355;28;20016;-83
2021/07/20 10:06:43;;;;;;;;;;;;;;;28.16;nan;99392.91;5012965;28;19928;-82
2021/07/20 10:09:13;;;;;;;;;;;;;;;28.23;nan;99386.56;5020843;28;19929;-86
2021/07/20 10:11:41;;;;;;;;;;;;;;;28.56;nan;99395.66;4997660;28;19971;-86
2021/07/20 10:14:18;;;;;;;;;;;;;;;28.68;nan;99382.72;5010833;28;20299;-87
2021/07/20 10:16:50;;;;;;;;;;;;;;;28.75;nan;99387.84;4994600;28;19921;-86
2021/07/20 10:19:40;;;;;;;;;;;;;;;29.07;nan;99385.16;4994828;28;19932;-86
2021/07/20 10:22:09;;;;;;;;;;;;;;;29.50;nan;99392.41;5009700;28;19967;-87
2021/07/20 10:24:47;;;;;;;;;;;;;;;29.20;nan;99383.13;5020510;28;19971;-82
2021/07/20 10:27:17;;;;;;;;;;;;;;;29.12;nan;99379.34;5019848;28;19921;-81
2021/07/20 10:29:52;;;;;;;;;;;;;;;29.03;nan;99385.44;5026804;28;20337;-83
2021/07/20 10:32:28;;;;;;;;;;;;;;;28.82;nan;99381.53;5009603;28;19921;-82
2021/07/20 10:35:00;;;;;;;;;;;;;;;29.29;nan;99385.63;5008895;28;20681;-83
2021/07/20 10:37:37;;;;;;;;;;;;;;;29.31;nan;99379.31;4994027;28;20565;-83
2021/07/20 10:40:16;;;;;;;;;;;;;;;28.88;nan;99382.22;4994187;28;19921;-82
2021/07/20 10:42:58;;;;;;;;;;;;;;;29.27;nan;99388.28;5009950;28;20295;-81
2021/07/20 10:45:27;;;;;;;;;;;;;;;29.09;nan;99382.50;5009762;28;19971;-81
2021/07/20 10:47:57;;;;;;;;;;;;;;;29.16;nan;99382.66;5012975;28;20533;-84
2021/07/20 10:50:32;;;;;;;;;;;;;;;28.90;nan;99387.44;5010167;28;19921;-83
2021/07/20 10:53:12;;;;;;;;;;;;;;;28.87;nan;99383.53;5018553;28;19921;-82
2021/07/20 10:55:40;;;;;;;;;;;;;;;29.10;nan;99390.59;5021010;28;19921;-82
2021/07/20 10:58:27;;;;;;;;;;;;;;;29.22;nan;99382.59;4997192;28;19974;-82
2021/07/20 11:01:08;;;;;;;;;;;;;;;29.18;nan;99380.03;5002546;28;19920;-82
2021/07/20 11:03:40;;;;;;;;;;;;;;;28.52;nan;99385.78;5022424;28;19970;-84
2021/07/20 11:06:10;;;;;;;;;;;;;;;27.76;nan;99388.78;5015877;28;19921;-82
2021/07/20 11:08:43;;;;;;;;;;;;;;;27.80;nan;99392.13;5018458;28;19974;-82
2021/07/20 11:11:18;;;;;;;;;;;;;;;28.08;nan;99392.72;5005313;28;20366;-82
2021/07/20 11:13:49;;;;;;;;;;;;;;;28.55;nan;99385.47;5025995;28;19921;-80
2021/07/20 11:16:18;;;;;;;;;;;;;;;28.74;nan;99386.31;5022120;28;20645;-80
2021/07/20 11:18:49;;;;;;;;;;;;;;;29.23;nan;99382.03;5020851;28;19929;-80
2021/07/20 11:21:21;;;;;;;;;;;;;;;29.07;nan;99397.44;5013858;28;19921;-80
2021/07/20 11:23:48;;;;;;;;;;;;;;;28.72;nan;99383.19;5020309;28;19928;-80
2021/07/20 11:26:16;;;;;;;;;;;;;;;29.17;nan;99387.09;5021568;28;19921;-80
2021/07/20 11:28:44;;;;;;;;;;;;;;;28.93;nan;99380.59;5017128;28;19929;-80
2021/07/20 11:31:17;;;;;;;;;;;;;;;28.84;nan;99378.88;5029732;28;19921;-80
2021/07/20 11:33:48;;;;;;;;;;;;;;;29.01;nan;99375.78;5024577;28;19935;-81
2021/07/20 11:36:19;;;;;;;;;;;;;;;28.90;nan;99381.69;5026490;28;19921;-80
2021/07/20 11:38:50;;;;;;;;;;;;;;;28.26;nan;99374.00;5017653;28;19921;-80
2021/07/20 11:41:29;;;;;;;;;;;;;;;28.46;nan;99377.19;5016362;28;20303;-80
2021/07/20 11:44:01;;;;;;;;;;;;;;;28.83;nan;99379.41;5017759;28;19921;-80
2021/07/20 11:46:34;;;;;;;;;;;;;;;28.82;nan;99380.72;5017602;28;19921;-81
2021/07/20 11:49:05;;;;;;;;;;;;;;;28.59;nan;99377.34;5017605;28;19925;-80
2021/07/20 11:51:35;;;;;;;;;;;;;;;29.13;nan;99372.25;4999614;28;20348;-80
2021/07/20 11:54:18;;;;;;;;;;;;;;;29.31;nan;99370.69;5016270;28;19936;-80
2021/07/20 11:56:50;;;;;;;;;;;;;;;29.50;nan;99374.34;5017392;28;19922;-80
2021/07/20 11:59:23;;;;;;;;;;;;;;;29.23;nan;99381.28;5016384;28;19926;-80
2021/07/20 12:01:53;;;;;;;;;;;;;;;29.25;nan;99376.53;5017660;28;20276;-80
2021/07/20 12:04:29;;;;;;;;;;;;;;;29.51;nan;99379.56;5016141;28;19925;-80
2021/07/20 12:07:20;;;;;;;;;;;;;;;28.94;nan;99380.06;5016808;28;19928;-80
2021/07/20 12:10:06;;;;;;;;;;;;;;;28.41;nan;99380.13;5015638;28;20372;-80
2021/07/20 12:12:51;;;;;;;;;;;;;;;28.18;nan;99385.31;5011252;28;19921;-80
2021/07/20 12:15:22;;;;;;;;;;;;;;;28.86;nan;99382.00;5016941;28;19928;-80
2021/07/20 12:17:50;;;;;;;;;;;;;;;29.21;nan;99378.16;4996763;28;19929;-80
2021/07/20 12:20:18;;;;;;;;;;;;;;;29.10;nan;99379.09;5026847;28;19925;-81
2021/07/20 12:22:48;;;;;;;;;;;;;;;29.51;nan;99378.78;5024508;28;19921;-79
2021/07/20 12:25:16;;;;;;;;;;;;;;;29.73;nan;99385.00;5024701;28;19928;-81
2021/07/20 12:27:44;;;;;;;;;;;;;;;29.58;nan;99378.91;5023109;28;19925;-81
2021/07/20 12:30:12;;;;;;;;;;;;;;;29.20;nan;99383.13;5021444;28;19947;-80
2021/07/20 12:32:43;;;;;;;;;;;;;;;29.71;nan;99376.16;5021514;28;20314;-80
2021/07/20 12:35:11;;;;;;;;;;;;;;;29.74;nan;99369.28;5003596;28;19928;-83
2021/07/20 12:37:41;;;;;;;;;;;;;;;29.65;nan;99375.47;5020868;28;19970;-80
2021/07/20 12:40:09;;;;;;;;;;;;;;;29.08;nan;99373.09;5012207;28;19922;-80
2021/07/20 12:42:39;;;;;;;;;;;;;;;29.05;nan;99379.16;5008767;28;19948;-82
2021/07/20 12:45:08;;;;;;;;;;;;;;;29.24;nan;99363.47;5014534;28;19925;-81
2021/07/20 12:47:39;;;;;;;;;;;;;;;29.27;nan;99362.38;5000838;28;19921;-81
2021/07/20 12:50:07;;;;;;;;;;;;;;;29.38;nan;99365.09;5010796;28;19921;-84
2021/07/20 12:52:39;;;;;;;;;;;;;;;29.34;nan;99370.38;5005689;28;19920;-81
2021/07/20 12:55:14;;;;;;;;;;;;;;;29.15;nan;99363.84;5014577;28;20370;-81
2021/07/20 12:57:52;;;;;;;;;;;;;;;28.96;nan;99371.66;4996229;28;19925;-82
2021/07/20 13:00:30;;;;;;;;;;;;;;;29.10;nan;99372.53;5004326;28;19976;-82
2021/07/20 13:02:59;;;;;;;;;;;;;;;29.19;nan;99375.81;5002698;28;19929;-82
2021/07/20 13:05:27;;;;;;;;;;;;;;;28.90;nan;99375.94;5012914;28;19922;-80
2021/07/20 13:07:59;;;;;;;;;;;;;;;28.77;nan;99367.19;5002635;28;19921;-80
2021/07/20 13:10:29;;;;;;;;;;;;;;;28.86;nan;99363.94;5022435;28;19920;-80
2021/07/20 13:13:03;;;;;;;;;;;;;;;28.88;nan;99372.81;5028595;28;19921;-80
2021/07/20 13:15:30;;;;;;;;;;;;;;;29.03;nan;99361.63;5023614;28;20279;-80
2021/07/20 13:18:00;;;;;;;;;;;;;;;29.18;nan;99371.41;5026004;28;19921;-80
2021/07/20 13:20:29;;;;;;;;;;;;;;;29.47;nan;99367.59;5026582;28;19971;-80
2021/07/20 13:22:57;;;;;;;;;;;;;;;28.77;nan;99370.84;5028216;28;19921;-79
2021/07/20 13:25:25;;;;;;;;;;;;;;;28.69;nan;99372.00;5008192;28;19931;-79
2021/07/20 13:27:53;;;;;;;;;;;;;;;28.89;nan;99378.03;5029481;28;19921;-79
2021/07/20 13:30:20;;;;;;;;;;;;;;;29.00;nan;99368.47;5027068;28;19928;-79
2021/07/20 13:32:49;;;;;;;;;;;;;;;29.39;nan;99366.66;5031855;28;20368;-79
2021/07/20 13:35:17;;;;;;;;;;;;;;;29.14;nan;99373.03;5018605;28;20388;-79
2021/07/20 13:37:44;;;;;;;;;;;;;;;29.16;nan;99365.41;5028634;28;19945;-79